Time;durP1;ratioP1;P1;durP2;ratioP2;P2;SDS_P1;SDS_P2;PMS_P1;PMS_P2;Temp;Humidity;BMP_temperature;BMP_pressure;BME280_temperature;BME280_humidity;BME280_pressure;Samples;Min_cycle;Max_cycle;Signal;HPM_P1;HPM_P2
2023/01/06 00:02:18;;;;;;;4.97;4.00;;;;;;;14.85;67.75;97723.31;4930048;28;20287;-76
2023/01/06 00:04:44;;;;;;;6.03;4.00;;;;;;;14.85;67.77;97715.44;4965654;28;20277;-76
2023/01/06 00:07:09;;;;;;;5.03;3.60;;;;;;;14.94;67.47;97727.00;4903836;28;20231;-76
2023/01/06 00:09:34;;;;;;;5.25;4.00;;;;;;;14.92;67.34;97716.75;4932696;28;20223;-77
2023/01/06 00:12:00;;;;;;;5.35;3.83;;;;;;;14.81;68.04;97712.56;4945540;28;20203;-76
2023/01/06 00:14:25;;;;;;;5.63;4.13;;;;;;;15.04;67.71;97711.28;4944902;28;20250;-77
2023/01/06 00:16:50;;;;;;;5.00;3.92;;;;;;;14.97;67.41;97713.38;4920327;28;20260;-76
2023/01/06 00:19:16;;;;;;;5.57;3.80;;;;;;;14.98;67.30;97707.09;4947970;28;20298;-76
2023/01/06 00:21:41;;;;;;;5.82;3.50;;;;;;;14.94;67.28;97708.63;4968151;28;20783;-76
2023/01/06 00:24:08;;;;;;;4.65;3.47;;;;;;;14.93;67.65;97710.47;4942515;28;20662;-76
2023/01/06 00:26:33;;;;;;;4.25;3.47;;;;;;;14.80;67.89;97695.25;4950390;28;20689;-77
2023/01/06 00:28:59;;;;;;;4.28;3.47;;;;;;;14.93;67.51;97693.97;4949849;28;20200;-76
2023/01/06 00:31:24;;;;;;;3.15;2.47;;;;;;;14.83;68.12;97689.47;4947283;28;20212;-76
2023/01/06 00:33:49;;;;;;;3.08;2.53;;;;;;;14.91;67.83;97682.97;4916335;28;20193;-76
2023/01/06 00:36:15;;;;;;;3.10;2.78;;;;;;;14.84;67.83;97691.06;4945063;28;20200;-76
2023/01/06 00:38:40;;;;;;;2.40;2.20;;;;;;;15.00;67.39;97697.13;4961051;28;20313;-76
2023/01/06 00:42:02;;;;;;;2.60;2.10;;;;;;;14.95;67.91;97697.13;4932853;28;20215;-76
2023/01/06 00:43:54;;;;;;;2.63;2.00;;;;;;;15.05;67.23;97694.50;4933851;28;20190;-77
2023/01/06 00:46:19;;;;;;;2.40;1.70;;;;;;;15.05;67.51;97688.50;4948083;28;20790;-76
2023/01/06 00:48:44;;;;;;;2.25;1.73;;;;;;;14.94;67.20;97696.34;4941498;28;20553;-76
2023/01/06 00:51:10;;;;;;;1.73;1.60;;;;;;;15.04;66.98;97687.69;4923863;28;20767;-76
2023/01/06 00:53:35;;;;;;;2.17;1.85;;;;;;;14.94;67.38;97693.72;4950861;28;20226;-76
2023/01/06 00:56:01;;;;;;;1.73;1.63;;;;;;;15.06;67.56;97690.84;4912267;28;20193;-76
2023/01/06 00:58:35;;;;;;;2.35;2.15;;;;;;;15.17;66.86;97687.19;4966353;28;20363;-76
2023/01/06 01:01:07;;;;;;;1.75;1.60;;;;;;;15.12;67.09;97699.50;4929859;28;20373;-76
2023/01/06 01:03:34;;;;;;;2.90;1.83;;;;;;;15.04;67.25;97689.53;4919104;28;20174;-77
2023/01/06 01:06:03;;;;;;;2.42;1.80;;;;;;;15.04;67.44;97706.03;4946051;28;20212;-75
2023/01/06 01:08:29;;;;;;;1.67;1.58;;;;;;;15.06;67.35;97695.28;4923012;28;20622;-76
2023/01/06 01:10:55;;;;;;;1.33;1.23;;;;;;;14.94;67.51;97706.81;4927171;28;20174;-76
2023/01/06 01:13:20;;;;;;;1.00;0.90;;;;;;;14.75;67.65;97703.09;4945736;28;20196;-77
2023/01/06 01:15:46;;;;;;;0.75;0.70;;;;;;;14.70;67.93;97698.63;4909818;28;20177;-75
2023/01/06 01:18:11;;;;;;;0.57;0.50;;;;;;;14.41;67.88;97704.25;4894624;28;20256;-76
2023/01/06 01:20:36;;;;;;;0.82;0.47;;;;;;;14.53;67.41;97703.25;4930940;28;20197;-76
2023/01/06 01:23:02;;;;;;;0.63;0.40;;;;;;;14.65;67.43;97709.09;4965007;28;20238;-76
2023/01/06 01:25:27;;;;;;;0.80;0.30;;;;;;;14.65;66.71;97714.34;4945788;28;20319;-76
2023/01/06 01:27:53;;;;;;;1.40;0.50;;;;;;;14.60;66.75;97716.94;4923637;28;20357;-76
2023/01/06 01:30:21;;;;;;;0.38;0.30;;;;;;;14.54;67.00;97712.69;4934721;28;20335;-75
2023/01/06 01:32:46;;;;;;;1.20;0.40;;;;;;;14.52;66.41;97715.56;4964156;28;20346;-76
2023/01/06 01:35:12;;;;;;;0.68;0.40;;;;;;;14.64;66.77;97707.53;4946536;28;20296;-76
2023/01/06 01:37:37;;;;;;;0.43;0.43;;;;;;;14.60;66.34;97722.19;4918362;28;20252;-76
2023/01/06 01:40:05;;;;;;;0.40;0.30;;;;;;;14.51;66.21;97710.56;4928225;28;20291;-76
2023/01/06 01:42:31;;;;;;;0.43;0.25;;;;;;;14.40;66.48;97707.91;4962502;28;20170;-76
2023/01/06 01:45:05;;;;;;;0.43;0.30;;;;;;;14.53;66.21;97706.69;4963919;28;20204;-76
2023/01/06 01:47:51;;;;;;;0.38;0.30;;;;;;;14.52;65.72;97712.16;4913967;28;20647;-76
2023/01/06 01:50:21;;;;;;;1.67;0.30;;;;;;;14.39;65.97;97714.22;4947754;28;20292;-76
2023/01/06 01:52:49;;;;;;;0.40;0.30;;;;;;;14.37;66.25;97713.66;4911434;28;20614;-77
2023/01/06 01:55:15;;;;;;;1.05;0.30;;;;;;;14.35;66.29;97715.75;4934485;28;20264;-77
2023/01/06 01:57:52;;;;;;;0.73;0.40;;;;;;;14.48;65.81;97711.09;4925318;28;20169;-76
2023/01/06 02:00:18;;;;;;;0.50;0.40;;;;;;;14.33;65.51;97715.22;4942975;28;20352;-77
2023/01/06 02:02:43;;;;;;;0.43;0.40;;;;;;;14.24;66.00;97716.75;4931770;28;20255;-76
2023/01/06 02:05:11;;;;;;;0.40;0.40;;;;;;;14.34;66.14;97719.44;4917026;28;20628;-76
2023/01/06 02:07:37;;;;;;;0.47;0.40;;;;;;;14.26;66.10;97721.72;4939108;28;20303;-76
2023/01/06 02:10:11;;;;;;;0.50;0.40;;;;;;;14.31;65.64;97716.50;4911438;28;20274;-77
2023/01/06 02:12:36;;;;;;;1.02;0.40;;;;;;;14.31;65.71;97719.13;4944707;28;20224;-76
2023/01/06 02:15:03;;;;;;;0.45;0.25;;;;;;;14.26;65.65;97706.81;4932672;28;20710;-76
2023/01/06 02:17:56;;;;;;;0.40;0.40;;;;;;;14.31;65.77;97709.47;4954003;28;20270;-76
2023/01/06 02:20:50;;;;;;;1.30;0.43;;;;;;;14.37;65.28;97703.19;4927034;28;20249;-76
2023/01/06 02:23:22;;;;;;;1.65;0.40;;;;;;;14.36;65.92;97700.81;4946443;28;20272;-76
2023/01/06 02:26:25;;;;;;;1.17;0.50;;;;;;;14.39;65.90;97700.31;4968418;28;20207;-76
2023/01/06 02:29:12;;;;;;;2.47;0.50;;;;;;;14.42;65.24;97697.97;4916553;28;20208;-76
2023/01/06 02:31:43;;;;;;;0.60;0.50;;;;;;;14.32;65.74;97697.91;4968814;28;20281;-76
2023/01/06 02:34:32;;;;;;;1.52;0.60;;;;;;;14.33;66.14;97707.38;4937904;28;20318;-76
2023/01/06 02:37:10;;;;;;;1.23;0.60;;;;;;;14.29;65.91;97695.84;4949728;28;20203;-76
2023/01/06 02:39:53;;;;;;;0.70;0.50;;;;;;;14.33;65.58;97696.09;4969546;28;20710;-77
2023/01/06 02:42:31;;;;;;;1.27;0.60;;;;;;;14.21;66.12;97689.25;4940876;28;20197;-76
2023/01/06 02:45:42;;;;;;;2.08;0.50;;;;;;;14.37;65.67;97684.84;4920337;28;20183;-77
2023/01/06 02:48:20;;;;;;;0.50;0.50;;;;;;;14.35;65.52;97678.31;4924043;28;20204;-77
2023/01/06 02:51:01;;;;;;;1.60;0.50;;;;;;;14.28;66.19;97678.53;4931263;28;20216;-76
2023/01/06 02:53:36;;;;;;;0.40;0.40;;;;;;;14.31;66.01;97680.66;4943657;28;20199;-77
2023/01/06 02:56:02;;;;;;;0.30;0.30;;;;;;;14.17;66.06;97674.28;4932234;28;20362;-76
2023/01/06 02:58:52;;;;;;;1.20;0.35;;;;;;;14.39;65.67;97682.78;4931993;28;20674;-76
2023/01/06 03:01:23;;;;;;;1.45;0.50;;;;;;;14.25;65.82;97679.03;4950105;28;20173;-76
2023/01/06 03:03:49;;;;;;;0.73;0.40;;;;;;;13.91;66.21;97674.16;4941731;28;20200;-75
2023/01/06 03:06:17;;;;;;;0.40;0.40;;;;;;;14.07;66.40;97680.28;4939249;28;20205;-77
2023/01/06 03:08:47;;;;;;;0.47;0.47;;;;;;;14.11;65.93;97676.09;4931817;28;20544;-75
2023/01/06 03:11:13;;;;;;;0.50;0.30;;;;;;;13.99;66.07;97678.13;4950583;28;20266;-76
2023/01/06 03:13:42;;;;;;;0.60;0.40;;;;;;;14.03;65.83;97676.56;4935516;28;20251;-76
2023/01/06 03:16:08;;;;;;;0.68;0.30;;;;;;;13.96;65.94;97668.16;4960069;28;20677;-76
2023/01/06 03:18:33;;;;;;;0.40;0.30;;;;;;;13.89;66.32;97670.22;4952135;28;20343;-76
2023/01/06 03:21:03;;;;;;;1.80;0.50;;;;;;;13.97;66.52;97667.91;4931102;28;20194;-76
2023/01/06 03:23:28;;;;;;;1.20;0.40;;;;;;;13.94;66.44;97673.66;4947694;28;20161;-77
2023/01/06 03:25:54;;;;;;;0.50;0.50;;;;;;;13.89;66.20;97678.84;4931844;28;20557;-76
2023/01/06 03:28:19;;;;;;;0.47;0.40;;;;;;;13.81;67.00;97671.47;4933941;28;20245;-76
2023/01/06 03:31:08;;;;;;;1.77;0.73;;;;;;;14.01;65.96;97663.72;4953494;28;20513;-76
2023/01/06 03:33:39;;;;;;;1.55;0.40;;;;;;;13.99;66.39;97672.91;4940050;28;20212;-76
2023/01/06 03:36:22;;;;;;;0.60;0.40;;;;;;;14.05;65.99;97670.06;4926351;28;20729;-77
2023/01/06 03:38:57;;;;;;;1.25;0.50;;;;;;;14.05;66.09;97670.06;4943673;28;20274;-76
2023/01/06 03:44:49;;;;;;;0.43;0.43;;;;;;;14.10;65.87;97676.34;4950026;28;20196;-77
2023/01/06 03:47:21;;;;;;;0.60;0.50;;;;;;;14.09;66.46;97669.53;4949241;28;20422;-77
2023/01/06 03:49:55;;;;;;;0.55;0.40;;;;;;;13.98;66.47;97664.25;4950760;28;20209;-76
2023/01/06 03:52:30;;;;;;;1.52;0.65;;;;;;;13.88;66.69;97658.97;4942760;28;20106;-77
2023/01/06 03:55:01;;;;;;;1.50;0.55;;;;;;;14.00;66.50;97653.50;4946028;28;20693;-77
2023/01/06 03:57:33;;;;;;;0.30;0.30;;;;;;;14.04;66.90;97649.34;4945993;28;20270;-76
2023/01/06 04:00:08;;;;;;;0.30;0.30;;;;;;;13.98;66.43;97651.16;4957611;28;20184;-77
2023/01/06 04:02:35;;;;;;;;;;;;;;;14.23;66.17;97649.69;4946621;28;20291;-76
2023/01/06 04:05:08;;;;;;;0.63;0.63;;;;;;;14.10;66.47;97643.09;4933211;28;20139;-76
2023/01/06 04:07:34;;;;;;;1.00;0.30;;;;;;;13.90;66.14;97632.50;4934131;28;20591;-75
2023/01/06 04:09:59;;;;;;;0.30;0.30;;;;;;;13.88;66.56;97638.03;4948929;28;20245;-77
2023/01/06 04:12:39;;;;;;;0.30;0.30;;;;;;;13.92;66.18;97630.44;4941288;28;20166;-76
2023/01/06 04:15:06;;;;;;;1.50;0.73;;;;;;;13.89;66.22;97628.34;4966871;28;20234;-77
2023/01/06 04:17:32;;;;;;;0.40;0.40;;;;;;;13.98;66.31;97629.41;4967851;28;20188;-77
2023/01/06 04:19:57;;;;;;;0.20;0.20;;;;;;;13.95;66.48;97629.91;4950216;28;20243;-76
2023/01/06 04:22:23;;;;;;;1.10;0.20;;;;;;;13.94;66.46;97629.13;4968008;28;20208;-75
2023/01/06 04:24:48;;;;;;;0.25;0.20;;;;;;;13.83;66.29;97627.53;4967591;28;20224;-76
2023/01/06 04:27:13;;;;;;;0.43;0.40;;;;;;;13.88;66.49;97627.56;4949379;28;20256;-76
2023/01/06 04:29:39;;;;;;;0.30;0.30;;;;;;;13.89;66.21;97623.88;4920448;28;20359;-77
2023/01/06 04:32:04;;;;;;;0.80;0.40;;;;;;;13.86;66.54;97624.38;4943420;28;20498;-76
2023/01/06 04:34:30;;;;;;;1.17;0.20;;;;;;;13.97;66.34;97620.78;4918934;28;20099;-76
2023/01/06 04:36:55;;;;;;;0.40;0.30;;;;;;;13.80;66.54;97610.50;4947858;28;20198;-76
2023/01/06 04:39:20;;;;;;;1.67;0.60;;;;;;;13.82;66.83;97611.00;4947960;28;20278;-76
2023/01/06 04:41:46;;;;;;;0.25;0.25;;;;;;;13.90;66.32;97615.00;4962157;28;20361;-76
2023/01/06 04:44:11;;;;;;;0.20;0.20;;;;;;;13.83;66.29;97614.44;4957376;28;20199;-76
2023/01/06 04:46:36;;;;;;;0.20;0.20;;;;;;;13.84;66.72;97608.94;4947429;28;20322;-76
2023/01/06 04:49:02;;;;;;;0.82;0.20;;;;;;;13.84;66.86;97616.00;4942162;28;20137;-76
2023/01/06 04:51:27;;;;;;;0.30;0.10;;;;;;;13.87;66.41;97618.13;4935872;28;20193;-76
2023/01/06 04:53:53;;;;;;;0.20;0.20;;;;;;;13.81;66.33;97613.88;4897634;28;20303;-76
2023/01/06 04:56:18;;;;;;;0.52;0.20;;;;;;;13.48;66.99;97602.72;4930701;28;20174;-76
2023/01/06 04:58:43;;;;;;;0.25;0.25;;;;;;;13.70;66.47;97607.81;4939909;28;20215;-76
2023/01/06 05:01:10;;;;;;;0.20;0.20;;;;;;;13.60;67.25;97618.22;4967546;28;20181;-75
2023/01/06 05:03:37;;;;;;;0.20;0.20;;;;;;;13.36;68.20;97621.19;4935874;28;20287;-75
2023/01/06 05:06:04;;;;;;;0.90;0.30;;;;;;;13.65;67.25;97619.03;4928099;28;20235;-76
2023/01/06 05:08:30;;;;;;;1.20;0.30;;;;;;;13.38;67.64;97619.13;4908629;28;20245;-76
2023/01/06 05:11:23;;;;;;;0.60;0.40;;;;;;;13.81;66.43;97621.72;4965406;28;20589;-76
2023/01/06 05:13:48;;;;;;;0.52;0.30;;;;;;;13.51;67.37;97622.38;4915367;28;20378;-76
2023/01/06 05:16:20;;;;;;;0.88;0.30;;;;;;;13.74;66.71;97621.97;4929038;28;20378;-76
2023/01/06 05:18:46;;;;;;;0.32;0.30;;;;;;;13.59;67.00;97630.53;4936086;28;20266;-75
2023/01/06 05:21:12;;;;;;;0.30;0.30;;;;;;;13.44;67.63;97633.81;4947571;28;20142;-76
2023/01/06 05:23:38;;;;;;;0.60;0.30;;;;;;;13.55;66.89;97634.66;4934749;28;20774;-76
2023/01/06 05:26:04;;;;;;;0.65;0.30;;;;;;;13.55;66.96;97623.44;4927539;28;20243;-76
2023/01/06 05:28:29;;;;;;;0.20;0.20;;;;;;;13.30;67.45;97627.44;4940884;28;20210;-75
2023/01/06 05:31:00;;;;;;;0.57;0.28;;;;;;;13.51;66.81;97627.59;4933882;28;20645;-77
2023/01/06 05:33:25;;;;;;;0.30;0.20;;;;;;;13.46;67.14;97626.50;4948702;28;20270;-76
2023/01/06 05:35:59;;;;;;;0.30;0.20;;;;;;;13.51;67.05;97627.59;4920293;28;20370;-76
2023/01/06 05:38:25;;;;;;;2.53;0.30;;;;;;;13.17;67.84;97628.63;4934924;28;20352;-75
2023/01/06 05:40:51;;;;;;;0.28;0.20;;;;;;;13.01;68.47;97627.72;4950798;28;20271;-76
2023/01/06 05:43:16;;;;;;;0.20;0.20;;;;;;;13.14;67.77;97638.78;4915282;28;20198;-75
2023/01/06 05:45:42;;;;;;;0.20;0.20;;;;;;;12.97;67.64;97637.09;4941335;28;20756;-75
2023/01/06 05:48:07;;;;;;;0.20;0.20;;;;;;;13.08;67.43;97637.97;4937435;28;20700;-76
2023/01/06 05:50:33;;;;;;;0.65;0.20;;;;;;;13.04;67.36;97639.47;4916020;28;20802;-77
2023/01/06 05:52:58;;;;;;;0.57;0.20;;;;;;;13.05;66.96;97648.91;4969932;28;20212;-75
2023/01/06 05:55:23;;;;;;;1.48;0.20;;;;;;;13.11;66.38;97661.00;4948555;28;20216;-76
2023/01/06 05:57:48;;;;;;;0.43;0.20;;;;;;;13.15;66.53;97659.47;4950854;28;20282;-76
2023/01/06 06:00:14;;;;;;;0.35;0.25;;;;;;;13.22;65.74;97656.63;4932226;28;20213;-76
2023/01/06 06:02:39;;;;;;;1.10;0.55;;;;;;;13.17;65.51;97657.38;4948586;28;20166;-76
2023/01/06 06:05:05;;;;;;;2.85;0.30;;;;;;;13.23;65.90;97651.16;4946027;28;20354;-76
2023/01/06 06:07:30;;;;;;;2.53;0.32;;;;;;;13.22;65.69;97657.41;4951905;28;20208;-77
2023/01/06 06:09:56;;;;;;;0.70;0.30;;;;;;;13.23;65.50;97659.00;4951801;28;20562;-76
2023/01/06 06:12:21;;;;;;;0.65;0.35;;;;;;;12.97;66.23;97654.59;4940081;28;20375;-77
2023/01/06 06:14:46;;;;;;;1.67;0.47;;;;;;;13.03;65.92;97659.63;4916248;28;20192;-76
2023/01/06 06:17:12;;;;;;;0.98;0.30;;;;;;;12.96;66.33;97653.03;4934498;28;20662;-76
2023/01/06 06:19:37;;;;;;;0.35;0.30;;;;;;;12.89;66.20;97668.91;4925020;28;20604;-77
2023/01/06 06:22:02;;;;;;;3.10;0.55;;;;;;;12.91;65.71;97667.59;4952372;28;20251;-76
2023/01/06 06:24:28;;;;;;;1.13;0.47;;;;;;;13.02;65.52;97665.91;4970966;28;20158;-76
2023/01/06 06:26:53;;;;;;;1.42;0.50;;;;;;;12.93;65.80;97662.91;4963932;28;20279;-76
2023/01/06 06:29:18;;;;;;;1.42;0.40;;;;;;;12.98;65.59;97662.19;4942664;28;20243;-76
2023/01/06 06:31:44;;;;;;;1.92;0.30;;;;;;;12.86;66.04;97656.31;4933715;28;20169;-76
2023/01/06 06:34:11;;;;;;;1.67;0.40;;;;;;;12.76;66.07;97653.59;4947074;28;20196;-76
2023/01/06 06:36:36;;;;;;;2.17;0.75;;;;;;;12.65;66.92;97671.00;4965407;28;20253;-76
2023/01/06 06:39:01;;;;;;;1.20;0.28;;;;;;;12.74;66.09;97674.75;4927828;28;20200;-76
2023/01/06 06:41:27;;;;;;;0.75;0.70;;;;;;;12.89;65.85;97677.53;4935786;28;20208;-76
2023/01/06 06:43:52;;;;;;;1.65;0.30;;;;;;;12.90;65.51;97675.69;4952755;28;20239;-76
2023/01/06 06:46:18;;;;;;;1.60;0.40;;;;;;;12.87;65.59;97666.53;4927002;28;20275;-76
2023/01/06 06:48:44;;;;;;;0.45;0.30;;;;;;;12.70;66.44;97665.84;4945686;28;20261;-77
2023/01/06 06:51:12;;;;;;;1.33;0.30;;;;;;;12.93;65.14;97685.66;4950568;28;20294;-76
2023/01/06 06:53:38;;;;;;;2.42;0.35;;;;;;;12.82;65.53;97671.72;4934102;28;20200;-76
2023/01/06 06:56:05;;;;;;;2.08;0.80;;;;;;;12.76;65.53;97677.91;4935015;28;20301;-76
2023/01/06 06:58:30;;;;;;;1.58;0.40;;;;;;;12.81;65.79;97677.19;4918592;28;20208;-76
2023/01/06 07:00:56;;;;;;;0.70;0.30;;;;;;;12.84;65.22;97687.16;4956773;28;20642;-76
2023/01/06 07:03:22;;;;;;;0.88;0.50;;;;;;;12.75;64.81;97678.97;4918557;28;20377;-76
2023/01/06 07:05:48;;;;;;;2.42;0.43;;;;;;;12.80;64.84;97681.63;4947163;28;20311;-76
2023/01/06 07:08:13;;;;;;;0.88;0.35;;;;;;;12.80;65.35;97680.81;4949263;28;20274;-76
2023/01/06 07:10:39;;;;;;;0.73;0.30;;;;;;;12.79;65.06;97682.66;4970758;28;20201;-76
2023/01/06 07:13:05;;;;;;;0.60;0.50;;;;;;;12.79;65.60;97693.09;4952530;28;20231;-76
2023/01/06 07:15:30;;;;;;;0.90;0.35;;;;;;;12.86;64.96;97691.06;4926046;28;20619;-77
2023/01/06 07:18:03;;;;;;;1.30;0.28;;;;;;;12.79;65.12;97695.72;4932053;28;20244;-76
2023/01/06 07:20:30;;;;;;;3.22;0.43;;;;;;;12.79;64.79;97685.25;4934018;28;20325;-76
2023/01/06 07:22:55;;;;;;;1.13;0.30;;;;;;;12.76;65.01;97692.81;4941748;28;20361;-76
2023/01/06 07:25:21;;;;;;;1.83;0.30;;;;;;;12.83;64.80;97694.19;4933525;28;20285;-76
2023/01/06 07:27:52;;;;;;;1.15;0.22;;;;;;;12.74;65.19;97700.88;4928888;28;20155;-76
2023/01/06 07:30:17;;;;;;;0.52;0.30;;;;;;;12.71;65.12;97696.94;4928904;28;20798;-76
2023/01/06 07:32:43;;;;;;;0.80;0.30;;;;;;;12.82;65.35;97697.84;4944875;28;20295;-76
2023/01/06 07:35:09;;;;;;;0.77;0.30;;;;;;;12.76;65.75;97698.03;4939306;28;20274;-76
2023/01/06 07:37:34;;;;;;;0.57;0.40;;;;;;;12.71;65.70;97693.53;4940668;28;20231;-76
2023/01/06 07:39:59;;;;;;;2.10;0.30;;;;;;;12.33;66.68;97685.53;4929750;28;20270;-76
2023/01/06 07:42:25;;;;;;;0.50;0.40;;;;;;;12.64;65.86;97690.31;4942947;28;20232;-77
2023/01/06 07:44:50;;;;;;;1.08;0.30;;;;;;;12.62;66.09;97695.00;4943199;28;20256;-76
2023/01/06 07:47:15;;;;;;;0.57;0.40;;;;;;;12.74;65.62;97700.88;4927360;28;20354;-76
2023/01/06 07:49:41;;;;;;;2.22;0.52;;;;;;;12.77;65.79;97697.00;4920041;28;20246;-76
2023/01/06 07:52:06;;;;;;;1.30;0.60;;;;;;;12.66;66.45;97707.34;4933061;28;20228;-76
2023/01/06 07:54:31;;;;;;;3.72;1.05;;;;;;;12.74;65.70;97708.72;4928027;28;20243;-76
2023/01/06 07:56:57;;;;;;;2.25;0.65;;;;;;;12.82;65.26;97708.28;4967382;28;20272;-76
2023/01/06 07:59:22;;;;;;;2.88;1.33;;;;;;;12.83;65.88;97711.69;4967833;28;20212;-76
2023/01/06 08:01:47;;;;;;;1.02;0.93;;;;;;;12.90;66.05;97718.31;4967623;28;20315;-76
2023/01/06 08:04:13;;;;;;;1.70;0.70;;;;;;;12.84;66.33;97702.81;4938170;28;20672;-76
2023/01/06 08:06:39;;;;;;;1.25;0.80;;;;;;;12.69;65.91;97706.84;4934054;28;20299;-76
2023/01/06 08:09:04;;;;;;;2.00;0.50;;;;;;;12.84;65.97;97724.50;4939283;28;20158;-76
2023/01/06 08:11:29;;;;;;;1.17;0.40;;;;;;;12.90;66.02;97718.31;4934663;28;20205;-76
2023/01/06 08:13:55;;;;;;;1.95;0.80;;;;;;;12.76;65.62;97726.78;4917397;28;20102;-77
2023/01/06 08:16:20;;;;;;;3.25;0.82;;;;;;;12.81;65.88;97735.44;4933734;28;20269;-76
2023/01/06 08:18:45;;;;;;;3.17;1.38;;;;;;;12.95;65.21;97735.06;4959057;28;20189;-76
2023/01/06 08:21:11;;;;;;;1.15;0.70;;;;;;;13.03;65.67;97742.50;4950213;28;20212;-76
2023/01/06 08:23:37;;;;;;;2.03;1.10;;;;;;;12.96;65.74;97741.91;4948188;28;20278;-77
2023/01/06 08:26:08;;;;;;;1.50;1.20;;;;;;;13.06;65.96;97748.00;4925967;28;20166;-76
2023/01/06 08:28:34;;;;;;;2.08;1.25;;;;;;;12.95;65.55;97742.91;4945767;28;20182;-76
2023/01/06 08:31:00;;;;;;;2.55;1.38;;;;;;;12.82;66.11;97731.81;4943242;28;20295;-77
2023/01/06 08:33:26;;;;;;;2.00;1.42;;;;;;;12.74;66.63;97734.84;4930293;28;20709;-76
2023/01/06 08:35:57;;;;;;;2.47;1.60;;;;;;;12.66;67.61;97741.31;4917373;28;20646;-77
2023/01/06 08:38:22;;;;;;;2.15;1.45;;;;;;;12.71;66.70;97738.75;4930547;28;20322;-76
2023/01/06 08:40:50;;;;;;;2.92;1.48;;;;;;;12.92;66.06;97739.75;4936172;28;20203;-76
2023/01/06 08:43:16;;;;;;;1.98;1.70;;;;;;;12.08;68.28;97733.00;4897740;28;20240;-75
2023/01/06 08:45:41;;;;;;;2.60;1.50;;;;;;;12.58;67.16;97733.09;4914757;28;20648;-76
2023/01/06 08:48:06;;;;;;;2.13;1.50;;;;;;;12.76;66.32;97732.78;4914754;28;20212;-76
2023/01/06 08:50:32;;;;;;;5.03;1.38;;;;;;;12.71;66.44;97736.16;4943244;28;20599;-76
2023/01/06 08:52:58;;;;;;;2.67;1.38;;;;;;;12.83;65.87;97733.38;4946994;28;20312;-76
2023/01/06 08:55:24;;;;;;;1.63;1.30;;;;;;;12.91;66.09;97732.94;4928903;28;20252;-76
2023/01/06 08:57:49;;;;;;;2.90;1.52;;;;;;;12.89;65.76;97734.25;4942592;28;20362;-76
2023/01/06 09:00:15;;;;;;;3.38;1.23;;;;;;;12.87;66.22;97718.03;4965422;28;20184;-76
2023/01/06 09:02:40;;;;;;;2.28;1.10;;;;;;;12.60;67.38;97705.69;4943221;28;20232;-76
2023/01/06 09:05:09;;;;;;;3.45;1.25;;;;;;;12.85;66.03;97705.19;4946938;28;20255;-76
2023/01/06 09:07:34;;;;;;;1.60;0.88;;;;;;;12.76;66.71;97704.03;4930346;28;20254;-76
2023/01/06 09:09:59;;;;;;;2.38;0.80;;;;;;;12.82;66.84;97690.00;4953936;28;20638;-76
2023/01/06 09:12:25;;;;;;;1.27;0.93;;;;;;;12.61;66.61;97698.63;4937051;28;20365;-76
2023/01/06 09:14:50;;;;;;;3.60;0.95;;;;;;;12.80;66.92;97702.53;4932533;28;20278;-75
2023/01/06 09:17:15;;;;;;;3.20;1.17;;;;;;;12.72;66.53;97700.34;4933309;28;20197;-76
2023/01/06 09:19:41;;;;;;;1.25;0.85;;;;;;;13.03;66.25;97703.28;4948075;28;20677;-76
2023/01/06 09:22:06;;;;;;;2.97;1.15;;;;;;;12.95;66.39;97708.94;4931575;28;20650;-76
2023/01/06 09:24:32;;;;;;;2.28;1.10;;;;;;;12.98;66.23;97711.06;4944170;28;20246;-76
2023/01/06 09:26:57;;;;;;;4.22;0.98;;;;;;;13.05;66.08;97716.88;4964460;28;20313;-76
2023/01/06 09:29:23;;;;;;;1.23;0.98;;;;;;;12.90;65.66;97728.78;4917213;28;20684;-75
2023/01/06 09:31:48;;;;;;;1.02;0.85;;;;;;;13.10;65.62;97716.94;4934060;28;20285;-76
2023/01/06 09:34:13;;;;;;;2.38;0.88;;;;;;;13.04;65.67;97715.28;4929742;28;20655;-76
2023/01/06 09:36:39;;;;;;;1.48;0.88;;;;;;;13.17;65.85;97721.97;4910804;28;20635;-76
2023/01/06 09:39:04;;;;;;;2.42;0.85;;;;;;;13.01;65.95;97713.97;4933260;28;20387;-76
2023/01/06 09:41:58;;;;;;;2.47;0.60;;;;;;;13.29;65.54;97717.38;4946464;28;20274;-76
2023/01/06 09:44:29;;;;;;;1.42;0.80;;;;;;;13.34;65.46;97727.91;4946349;28;20204;-76
2023/01/06 09:46:56;;;;;;;2.05;0.73;;;;;;;13.11;65.28;97736.81;4933563;28;20211;-76
2023/01/06 09:49:44;;;;;;;1.33;0.57;;;;;;;12.94;66.44;97736.91;4916265;28;20230;-76
2023/01/06 09:52:26;;;;;;;2.00;0.73;;;;;;;13.17;66.42;97746.28;4945642;28;20283;-76
2023/01/06 09:55:10;;;;;;;1.83;0.80;;;;;;;12.87;66.62;97763.22;4945577;28;20637;-76
2023/01/06 09:57:38;;;;;;;0.98;0.43;;;;;;;13.18;65.86;97760.13;4927892;28;20663;-76
2023/01/06 10:00:19;;;;;;;2.47;0.55;;;;;;;13.14;65.45;97759.06;4933149;28;20640;-75
2023/01/06 10:02:44;;;;;;;1.30;0.50;;;;;;;12.80;65.84;97765.25;4962755;28;20181;-74
2023/01/06 10:05:22;;;;;;;2.00;0.50;;;;;;;13.24;65.54;97744.25;4949546;28;20188;-76
2023/01/06 10:08:05;;;;;;;2.22;0.63;;;;;;;13.40;64.77;97744.41;4933146;28;20285;-76
2023/01/06 10:10:37;;;;;;;2.53;0.77;;;;;;;13.26;64.78;97755.28;4927489;28;20703;-76
2023/01/06 10:13:21;;;;;;;2.15;0.68;;;;;;;13.41;64.17;97749.41;4922094;28;20274;-76
2023/01/06 10:16:01;;;;;;;1.67;0.52;;;;;;;13.45;64.32;97758.34;4933837;28;20281;-77
2023/01/06 10:18:51;;;;;;;1.33;0.50;;;;;;;13.30;63.90;97750.34;4948719;28;20636;-76
2023/01/06 10:21:19;;;;;;;0.95;0.45;;;;;;;13.24;64.30;97756.53;4946931;28;20280;-76
2023/01/06 10:24:00;;;;;;;1.13;0.70;;;;;;;13.36;64.52;97761.66;4933639;28;20282;-76
2023/01/06 10:26:30;;;;;;;1.20;0.57;;;;;;;13.00;64.89;97769.13;4930231;28;20169;-75
2023/01/06 10:29:03;;;;;;;1.35;0.50;;;;;;;13.06;65.17;97755.06;4945577;28;20577;-76
2023/01/06 10:31:33;;;;;;;0.93;0.60;;;;;;;13.15;65.08;97768.50;4928646;28;20289;-76
2023/01/06 10:34:01;;;;;;;2.17;0.50;;;;;;;13.26;64.66;97763.13;4909738;28;20629;-76
2023/01/06 10:36:32;;;;;;;3.45;0.75;;;;;;;13.28;64.82;97763.66;4931996;28;20283;-76
2023/01/06 10:38:58;;;;;;;0.68;0.40;;;;;;;13.14;63.63;97754.59;4927564;28;20137;-76
2023/01/06 10:41:32;;;;;;;1.45;0.40;;;;;;;13.18;64.43;97760.13;4933071;28;20224;-76
2023/01/06 10:43:57;;;;;;;1.38;0.40;;;;;;;12.99;64.39;97742.19;4950137;28;20362;-76
2023/01/06 10:46:33;;;;;;;2.08;0.43;;;;;;;13.15;64.85;97755.41;4967492;28;20713;-76
2023/01/06 10:48:58;;;;;;;;;;;;;;;13.21;64.29;97751.81;4928928;28;20307;-76
2023/01/06 10:51:38;;;;;;;0.90;0.40;;;;;;;13.06;64.76;97750.63;4933635;28;20451;-76
2023/01/06 10:54:07;;;;;;;1.30;0.40;;;;;;;13.07;64.44;97759.25;4926945;28;20189;-76
2023/01/06 10:56:34;;;;;;;0.65;0.30;;;;;;;13.11;64.25;97755.13;4897842;28;20328;-76
2023/01/06 10:59:05;;;;;;;1.27;0.35;;;;;;;13.26;64.14;97750.03;4933472;28;20227;-76
2023/01/06 11:01:31;;;;;;;0.95;0.30;;;;;;;13.12;63.88;97756.69;4930822;28;20223;-76
2023/01/06 11:04:03;;;;;;;0.65;0.32;;;;;;;13.40;64.69;97765.34;4920279;28;20188;-76
2023/01/06 11:06:29;;;;;;;2.05;1.00;;;;;;;13.23;64.53;97755.75;4955041;28;20190;-76
2023/01/06 11:08:55;;;;;;;0.75;0.32;;;;;;;13.36;63.81;97764.28;4951882;28;20310;-76
2023/01/06 11:11:21;;;;;;;1.40;0.50;;;;;;;13.03;64.02;97764.19;4910301;28;20181;-76
2023/01/06 11:13:56;;;;;;;1.85;0.43;;;;;;;13.10;64.65;97750.91;4934029;28;20181;-76
2023/01/06 11:16:27;;;;;;;0.75;0.55;;;;;;;13.40;63.44;97752.28;4930039;28;20733;-76
2023/01/06 11:18:54;;;;;;;1.33;0.30;;;;;;;13.17;64.46;97738.44;4944441;28;20177;-76
2023/01/06 11:21:20;;;;;;;1.27;0.40;;;;;;;13.25;63.83;97743.22;4920877;28;20229;-76
2023/01/06 11:23:47;;;;;;;0.65;0.40;;;;;;;13.29;64.11;97740.91;4949418;28;20211;-76
2023/01/06 11:26:21;;;;;;;2.28;0.30;;;;;;;13.43;62.96;97736.88;4932446;28;20203;-76
2023/01/06 11:28:53;;;;;;;1.27;0.30;;;;;;;13.36;62.97;97735.50;4949308;28;20673;-76
2023/01/06 11:31:21;;;;;;;0.40;0.30;;;;;;;13.25;64.13;97727.53;4916520;28;20247;-76
2023/01/06 11:33:55;;;;;;;0.57;0.40;;;;;;;12.94;64.18;97731.69;4927328;28;20240;-76
2023/01/06 11:36:23;;;;;;;0.95;0.70;;;;;;;13.05;64.98;97727.34;4940091;28;20181;-76
2023/01/06 11:38:55;;;;;;;1.15;0.30;;;;;;;12.90;64.39;97722.72;4926743;28;20223;-76
2023/01/06 11:41:28;;;;;;;0.70;0.30;;;;;;;13.24;63.27;97723.31;4932233;28;20384;-76
2023/01/06 11:43:56;;;;;;;1.17;0.30;;;;;;;13.20;63.45;97727.50;4949140;28;20200;-76
2023/01/06 11:46:24;;;;;;;0.55;0.40;;;;;;;13.29;63.30;97725.22;4932070;28;20169;-76